createdAt,value
2022-08-17T00:01:40.007Z,47.51
2022-08-17T00:04:20.492Z,47.47
2022-08-17T00:06:49.451Z,47.46
2022-08-17T00:09:18.519Z,47.47
2022-08-17T00:12:41.040Z,47.45
2022-08-17T00:14:34.313Z,47.43
2022-08-17T00:17:01.417Z,47.51
2022-08-17T00:19:28.513Z,47.46
2022-08-17T00:22:31.938Z,47.43
2022-08-17T00:24:44.863Z,47.53
2022-08-17T00:27:12.025Z,47.56
2022-08-17T00:29:38.990Z,47.46
2022-08-17T00:33:13.920Z,47.50
2022-08-17T00:34:53.162Z,48.23
2022-08-17T00:37:20.089Z,48.04
2022-08-17T00:39:47.096Z,47.76
2022-08-17T00:42:15.434Z,47.80
2022-08-17T00:44:42.467Z,47.91
2022-08-17T00:47:09.481Z,47.68
2022-08-17T00:49:36.531Z,47.59
2022-08-17T00:52:11.670Z,47.94
2022-08-17T00:54:42.320Z,47.72
2022-08-17T00:57:09.529Z,47.87
2022-08-17T00:59:41.853Z,47.82
2022-08-17T01:02:09.801Z,47.80
2022-08-17T01:04:37.619Z,47.87
2022-08-17T01:07:05.474Z,47.85
2022-08-17T01:09:33.054Z,47.92
2022-08-17T01:12:00.263Z,47.80
2022-08-17T01:14:27.428Z,47.75
2022-08-17T01:16:55.286Z,47.64
2022-08-17T01:19:23.787Z,47.80
2022-08-17T01:21:55.712Z,48.09
2022-08-17T01:24:22.951Z,47.96
2022-08-17T01:26:50.257Z,47.88
2022-08-17T01:29:18.897Z,47.80
2022-08-17T01:31:48.785Z,47.72
2022-08-17T01:34:16.943Z,47.78
2022-08-17T01:36:46.601Z,47.96
2022-08-17T01:39:34.518Z,48.35
2022-08-17T01:42:05.912Z,47.98
2022-08-17T01:44:33.122Z,48.35
2022-08-17T01:47:00.250Z,48.25
2022-08-17T01:49:28.052Z,48.18
2022-08-17T01:51:55.273Z,48.25
2022-08-17T01:54:23.251Z,48.02
2022-08-17T01:56:51.608Z,48.21
2022-08-17T01:59:20.031Z,48.92
2022-08-17T02:01:47.353Z,49.03
2022-08-17T02:04:14.906Z,49.38
2022-08-17T02:06:47.028Z,49.51
2022-08-17T02:09:29.571Z,49.12
2022-08-17T02:11:58.359Z,49.39
2022-08-17T02:14:25.538Z,49.37
2022-08-17T02:16:53.174Z,49.41
2022-08-17T02:19:20.488Z,49.43
2022-08-17T02:21:48.617Z,49.52
2022-08-17T02:25:00.720Z,49.41
2022-08-17T02:27:07.829Z,49.75
2022-08-17T02:29:34.761Z,49.93
2022-08-17T02:32:02.004Z,49.77
2022-08-17T02:34:30.098Z,49.15
2022-08-17T02:36:57.233Z,49.12
2022-08-17T02:39:24.275Z,49.04
2022-08-17T02:41:59.943Z,48.88
2022-08-17T02:44:35.388Z,48.92
2022-08-17T02:47:08.091Z,49.00
2022-08-17T02:49:35.154Z,48.82
2022-08-17T02:52:06.785Z,49.33
2022-08-17T02:54:39.018Z,49.78
2022-08-17T02:57:09.588Z,49.68
2022-08-17T02:59:37.245Z,49.11
2022-08-17T03:02:04.988Z,49.18
2022-08-17T03:04:35.186Z,48.75
2022-08-17T03:07:03.132Z,48.87
2022-08-17T03:09:30.216Z,48.72
2022-08-17T03:12:07.568Z,48.81
2022-08-17T03:14:41.104Z,49.23
2022-08-17T03:17:10.039Z,49.08
2022-08-17T03:19:39.644Z,49.13
2022-08-17T03:22:35.426Z,48.67
2022-08-17T03:24:57.372Z,49.12
2022-08-17T03:27:24.336Z,48.98
2022-08-17T03:29:51.283Z,48.66
2022-08-17T03:32:20.756Z,48.68
2022-08-17T03:34:48.159Z,48.72
2022-08-17T03:37:15.191Z,48.45
2022-08-17T03:39:42.975Z,48.71
2022-08-17T03:42:31.317Z,48.58
2022-08-17T03:45:00.435Z,48.51
2022-08-17T03:47:46.264Z,48.72
2022-08-17T03:50:32.813Z,48.76
2022-08-17T03:53:18.940Z,48.48
2022-08-17T03:56:04.600Z,48.67
2022-08-17T03:58:31.813Z,48.60
2022-08-17T04:00:59.906Z,48.67
2022-08-17T04:03:27.033Z,48.67
2022-08-17T04:05:54.036Z,48.96
2022-08-17T04:08:21.141Z,49.18
2022-08-17T04:10:48.251Z,49.27
2022-08-17T04:13:15.443Z,49.27
2022-08-17T04:15:51.188Z,49.81
2022-08-17T04:18:18.283Z,49.56
2022-08-17T04:20:45.914Z,50.26
2022-08-17T04:23:15.473Z,50.42
2022-08-17T04:25:44.056Z,50.28
2022-08-17T04:28:15.868Z,50.11
2022-08-17T04:30:45.342Z,50.12
2022-08-17T04:33:14.303Z,49.83
2022-08-17T04:35:42.825Z,50.22
2022-08-17T04:38:12.072Z,49.88
2022-08-17T04:40:58.247Z,50.08
2022-08-17T04:43:26.380Z,50.21
2022-08-17T04:45:56.691Z,50.27
2022-08-17T04:48:35.368Z,50.24
2022-08-17T04:51:03.461Z,50.15
2022-08-17T04:53:30.503Z,50.53
2022-08-17T04:55:59.148Z,50.59
2022-08-17T04:58:26.224Z,50.55
2022-08-17T05:00:53.247Z,50.79
2022-08-17T05:03:20.345Z,50.87
2022-08-17T05:05:50.175Z,50.89
2022-08-17T05:08:18.728Z,51.12
2022-08-17T05:10:46.348Z,50.86
2022-08-17T05:13:17.697Z,51.16
2022-08-17T05:15:47.607Z,50.91
2022-08-17T05:18:15.740Z,51.56
2022-08-17T05:20:43.423Z,51.77
2022-08-17T05:23:12.387Z,51.86
2022-08-17T05:25:40.908Z,52.41
2022-08-17T05:28:09.060Z,52.23
2022-08-17T05:30:38.178Z,51.68
2022-08-17T05:33:07.491Z,52.02
2022-08-17T05:35:36.376Z,51.87
2022-08-17T05:38:04.060Z,51.87
2022-08-17T05:40:32.631Z,51.85
2022-08-17T05:43:14.093Z,52.04
2022-08-17T05:45:55.279Z,51.66
2022-08-17T05:48:35.399Z,51.55
2022-08-17T05:51:25.512Z,51.39
2022-08-17T05:53:52.517Z,51.83
2022-08-17T05:56:37.735Z,52.02
2022-08-17T05:59:13.753Z,51.32
2022-08-17T06:01:59.072Z,51.29
2022-08-17T06:04:50.200Z,50.41
2022-08-17T06:07:29.520Z,50.74
2022-08-17T06:09:56.425Z,50.97
2022-08-17T06:12:46.775Z,50.68
2022-08-17T06:15:32.188Z,50.28
2022-08-17T06:18:01.118Z,50.09
2022-08-17T06:22:44.721Z,49.83
2022-08-17T06:25:14.612Z,49.21
2022-08-17T06:27:45.390Z,48.92
2022-08-17T06:30:12.302Z,48.86
2022-08-17T06:32:42.646Z,49.34
2022-08-17T06:35:11.619Z,49.23
2022-08-17T06:37:39.317Z,49.36
2022-08-17T06:40:12.477Z,48.76
2022-08-17T06:43:02.780Z,47.87
2022-08-17T06:45:42.515Z,47.69
2022-08-17T06:48:13.289Z,47.25
2022-08-17T06:50:44.318Z,47.75
2022-08-17T06:53:21.216Z,47.53
2022-08-17T06:56:00.468Z,47.27
2022-08-17T06:58:31.615Z,47.38
2022-08-17T07:01:04.924Z,46.73
2022-08-17T07:03:38.844Z,47.07
2022-08-17T07:06:08.637Z,46.48
2022-08-17T07:08:51.027Z,46.10
2022-08-17T07:11:26.422Z,45.94
2022-08-17T07:14:16.990Z,46.16
2022-08-17T07:16:47.186Z,45.59
2022-08-17T07:19:16.023Z,45.33
2022-08-17T07:21:43.024Z,45.60
2022-08-17T07:24:26.061Z,45.25
2022-08-17T07:27:04.739Z,45.59
2022-08-17T07:29:33.249Z,45.17
2022-08-17T07:32:00.297Z,44.24
2022-08-17T07:34:27.373Z,44.40
2022-08-17T07:37:05.223Z,44.00
2022-08-17T07:39:32.264Z,44.51
2022-08-17T07:42:03.597Z,43.45
2022-08-17T07:44:30.626Z,43.40
2022-08-17T07:47:16.340Z,43.40
2022-08-17T07:49:47.513Z,43.88
2022-08-17T07:52:50.966Z,43.08
2022-08-17T07:55:40.496Z,43.50
2022-08-17T07:58:07.560Z,42.76
2022-08-17T08:00:34.581Z,42.83
2022-08-17T08:03:04.460Z,42.72
2022-08-17T08:05:50.029Z,42.12
2022-08-17T08:08:33.851Z,42.27
2022-08-17T08:11:09.303Z,42.54
2022-08-17T08:13:42.456Z,42.81
2022-08-17T08:16:21.592Z,41.76
2022-08-17T08:18:55.392Z,41.87
2022-08-17T08:21:52.950Z,41.23
2022-08-17T08:24:38.650Z,41.31
2022-08-17T08:27:28.915Z,41.43
2022-08-17T08:30:06.220Z,41.29
2022-08-17T08:32:50.404Z,40.97
2022-08-17T08:35:23.359Z,40.20
2022-08-17T08:37:50.483Z,40.24
2022-08-17T08:40:36.459Z,40.82
2022-08-17T08:43:12.716Z,40.33
2022-08-17T08:46:06.007Z,41.13
2022-08-17T08:48:56.641Z,40.21
2022-08-17T08:51:46.316Z,40.36
2022-08-17T08:54:26.435Z,40.51
2022-08-17T08:57:24.356Z,40.53
2022-08-17T08:59:57.860Z,40.32
2022-08-17T09:02:25.384Z,40.51
2022-08-17T09:05:14.460Z,40.75
2022-08-17T09:07:51.038Z,40.36
2022-08-17T09:10:31.080Z,40.60
2022-08-17T09:13:22.162Z,40.64
2022-08-17T09:15:59.061Z,40.41
2022-08-17T09:19:00.039Z,39.91
2022-08-17T09:21:23.975Z,40.29
2022-08-17T09:23:59.680Z,40.27
2022-08-17T09:26:31.484Z,40.00
2022-08-17T09:29:01.649Z,39.74
2022-08-17T09:31:48.922Z,39.86
2022-08-17T09:34:19.967Z,40.09
2022-08-17T09:37:00.743Z,39.82
2022-08-17T09:39:36.450Z,38.94
2022-08-17T09:42:12.557Z,39.07
2022-08-17T09:44:58.401Z,38.93
2022-08-17T09:47:32.227Z,38.88
2022-08-17T09:50:20.282Z,38.92
2022-08-17T09:53:07.349Z,39.16
2022-08-17T09:55:49.629Z,39.13
2022-08-17T09:58:34.842Z,38.46
2022-08-17T10:01:06.838Z,38.06
2022-08-17T10:03:43.041Z,37.81
2022-08-17T10:06:13.453Z,37.16
2022-08-17T10:08:57.622Z,35.52
2022-08-17T10:12:04.660Z,35.48
2022-08-17T10:14:53.351Z,34.54
2022-08-17T10:17:21.207Z,34.21
2022-08-17T10:20:03.239Z,34.06
2022-08-17T10:22:55.311Z,34.67
2022-08-17T10:25:54.551Z,35.00
2022-08-17T10:28:28.804Z,33.69
2022-08-17T10:31:23.229Z,33.38
2022-08-17T10:34:19.240Z,32.68
2022-08-17T10:36:47.468Z,32.98
2022-08-17T10:39:20.409Z,32.70
2022-08-17T10:41:50.569Z,33.20
2022-08-17T10:44:39.517Z,33.20
2022-08-17T10:47:11.466Z,32.16
2022-08-17T10:49:39.521Z,32.18
2022-08-17T10:52:26.410Z,32.19
2022-08-17T10:55:02.327Z,33.21
2022-08-17T10:57:29.342Z,31.96
2022-08-17T10:59:57.543Z,32.15
2022-08-17T11:02:27.527Z,32.36
2022-08-17T11:05:00.659Z,33.12
2022-08-17T11:07:30.844Z,33.21
2022-08-17T11:10:09.139Z,32.69
2022-08-17T11:12:45.515Z,32.48
2022-08-17T11:15:15.957Z,31.83
2022-08-17T11:17:55.552Z,31.85
2022-08-17T11:20:38.133Z,32.23
2022-08-17T11:23:24.701Z,32.46
2022-08-17T11:25:58.859Z,31.64
2022-08-17T11:28:28.295Z,31.97
2022-08-17T11:30:57.886Z,32.11
2022-08-17T11:33:36.924Z,31.99
2022-08-17T11:36:23.904Z,32.02
2022-08-17T11:38:50.836Z,32.06
2022-08-17T11:41:27.850Z,31.87
2022-08-17T11:44:17.049Z,31.74
2022-08-17T11:47:16.421Z,31.79
2022-08-17T11:50:02.065Z,31.24
2022-08-17T11:52:46.767Z,31.94
2022-08-17T11:55:38.546Z,31.18
2022-08-17T11:58:26.341Z,30.86
2022-08-17T12:00:57.846Z,31.33
2022-08-17T12:03:31.926Z,31.48
2022-08-17T12:06:11.319Z,31.54
2022-08-17T12:08:43.450Z,30.25
2022-08-17T12:11:12.035Z,31.10
2022-08-17T12:13:44.746Z,30.98
2022-08-17T12:16:19.096Z,31.30
2022-08-17T12:19:05.267Z,30.66
2022-08-17T12:21:38.324Z,30.77
2022-08-17T12:24:14.466Z,31.04
2022-08-17T12:26:44.198Z,30.31
2022-08-17T12:29:18.504Z,30.68
2022-08-17T12:32:04.263Z,30.91
2022-08-17T12:34:36.622Z,30.18
2022-08-17T12:37:08.521Z,30.41
2022-08-17T12:39:35.681Z,30.97
2022-08-17T12:42:04.011Z,30.57
2022-08-17T12:44:35.570Z,30.17
2022-08-17T12:47:07.685Z,30.84
2022-08-17T12:49:36.442Z,30.41
2022-08-17T12:52:14.264Z,30.05
2022-08-17T12:54:44.201Z,29.71
2022-08-17T12:57:16.985Z,30.58
2022-08-17T12:59:46.336Z,30.24
2022-08-17T13:02:19.607Z,30.18
2022-08-17T13:04:46.866Z,29.62
2022-08-17T13:07:26.112Z,29.40
2022-08-17T13:09:53.221Z,30.15
2022-08-17T13:12:26.202Z,30.05
2022-08-17T13:14:53.352Z,29.58
2022-08-17T13:17:32.276Z,29.28
2022-08-17T13:19:59.614Z,29.17
2022-08-17T13:22:28.005Z,28.51
2022-08-17T13:24:57.815Z,28.79
2022-08-17T13:27:26.363Z,28.71
2022-08-17T13:29:55.556Z,29.17
2022-08-17T13:32:34.418Z,29.18
2022-08-17T13:35:15.226Z,29.34
2022-08-17T13:38:02.308Z,29.90
2022-08-17T13:40:31.372Z,30.17
2022-08-17T13:42:58.539Z,29.82
2022-08-17T13:45:34.741Z,29.43
2022-08-17T13:48:13.752Z,28.87
2022-08-17T13:50:41.298Z,28.89
2022-08-17T13:53:28.713Z,28.15
2022-08-17T13:56:07.454Z,28.23
2022-08-17T13:58:54.499Z,28.29
2022-08-17T14:01:53.615Z,28.08
2022-08-17T14:04:22.922Z,28.51
2022-08-17T14:06:54.101Z,28.60
2022-08-17T14:09:24.527Z,29.02
2022-08-17T14:11:51.803Z,28.89
2022-08-17T14:14:18.850Z,28.91
2022-08-17T14:16:45.896Z,29.21
2022-08-17T14:19:14.104Z,27.82
2022-08-17T14:21:43.117Z,27.58
2022-08-17T14:24:16.937Z,27.53
2022-08-17T14:26:45.029Z,28.72
2022-08-17T14:29:12.669Z,29.02
2022-08-17T14:31:42.692Z,29.44
2022-08-17T14:34:18.368Z,29.66
2022-08-17T14:36:48.641Z,29.68
2022-08-17T14:39:17.338Z,29.88
2022-08-17T14:41:44.454Z,29.53
2022-08-17T14:44:12.692Z,28.97
2022-08-17T14:46:40.983Z,29.45
2022-08-17T14:49:08.980Z,29.41
2022-08-17T14:51:43.492Z,28.29
2022-08-17T14:54:25.654Z,28.42
2022-08-17T14:57:23.301Z,28.38
2022-08-17T14:59:47.513Z,28.45
2022-08-17T15:02:17.710Z,29.04
2022-08-17T15:04:47.777Z,29.55
2022-08-17T15:07:15.362Z,29.46
2022-08-17T15:09:42.521Z,29.91
2022-08-17T15:12:16.960Z,30.00
2022-08-17T15:14:44.067Z,30.37
2022-08-17T15:17:11.790Z,30.73
2022-08-17T15:19:38.761Z,30.75
2022-08-17T15:22:06.894Z,30.78
2022-08-17T15:24:33.874Z,30.48
2022-08-17T15:27:01.041Z,29.61
2022-08-17T15:29:29.014Z,29.37
2022-08-17T15:32:00.453Z,29.43
2022-08-17T15:34:27.988Z,30.04
2022-08-17T15:36:54.992Z,29.80
2022-08-17T15:39:22.251Z,30.08
2022-08-17T15:41:58.692Z,29.46
2022-08-17T15:44:30.202Z,29.10
2022-08-17T15:46:59.848Z,29.27
2022-08-17T15:49:27.709Z,29.35
2022-08-17T15:51:54.692Z,29.01
2022-08-17T15:54:22.418Z,29.05
2022-08-17T15:56:50.046Z,29.09
2022-08-17T15:59:16.988Z,29.52
2022-08-17T16:03:15.264Z,29.44
2022-08-17T16:04:31.798Z,29.80
2022-08-17T16:07:00.046Z,30.17
2022-08-17T16:09:27.632Z,30.23
2022-08-17T16:11:56.344Z,30.10
2022-08-17T16:14:24.685Z,30.55
2022-08-17T16:16:59.481Z,30.28
2022-08-17T16:19:26.634Z,30.46
2022-08-17T16:21:53.610Z,30.66
2022-08-17T16:24:20.569Z,30.83
2022-08-17T16:26:47.717Z,30.64
2022-08-17T16:29:14.686Z,31.07
2022-08-17T16:31:42.524Z,31.16
2022-08-17T16:34:17.353Z,31.44
2022-08-17T16:36:54.675Z,32.27
2022-08-17T16:39:23.983Z,32.38
2022-08-17T16:41:50.977Z,32.51
2022-08-17T16:44:20.178Z,32.39
2022-08-17T16:46:48.304Z,32.58
2022-08-17T16:49:36.325Z,32.71
2022-08-17T16:52:04.442Z,32.53
2022-08-17T16:54:31.449Z,32.46
2022-08-17T16:56:58.547Z,32.71
2022-08-17T16:59:30.253Z,32.79
2022-08-17T17:02:04.842Z,33.03
2022-08-17T17:04:35.075Z,32.82
2022-08-17T17:07:25.801Z,33.24
2022-08-17T17:09:55.570Z,33.07
2022-08-17T17:13:00.824Z,33.26
2022-08-17T17:15:10.896Z,33.33
2022-08-17T17:17:39.147Z,33.39
2022-08-17T17:20:15.940Z,33.42
2022-08-17T17:22:48.201Z,33.55
2022-08-17T17:25:24.971Z,33.41
2022-08-17T17:27:56.721Z,33.60
2022-08-17T17:30:27.167Z,33.73
2022-08-17T17:33:11.210Z,33.54
2022-08-17T17:35:53.377Z,33.57
2022-08-17T17:38:31.477Z,34.02
2022-08-17T17:41:04.647Z,33.72
2022-08-17T17:43:39.831Z,33.72
2022-08-17T17:46:27.652Z,33.85
2022-08-17T17:48:56.866Z,34.13
2022-08-17T17:52:05.927Z,34.36
2022-08-17T17:54:32.639Z,34.28
2022-08-17T17:57:07.491Z,34.31
2022-08-17T17:59:47.731Z,34.38
2022-08-17T18:02:37.746Z,34.78
2022-08-17T18:05:12.517Z,34.85
2022-08-17T18:07:46.628Z,34.81
2022-08-17T18:10:44.996Z,34.82
2022-08-17T18:13:28.117Z,35.00
2022-08-17T18:15:56.336Z,35.44
2022-08-17T18:18:31.144Z,35.64
2022-08-17T18:21:05.608Z,35.92
2022-08-17T18:23:33.255Z,36.25
2022-08-17T18:26:02.105Z,36.47
2022-08-17T18:28:32.284Z,36.65
2022-08-17T18:31:05.561Z,36.78
2022-08-17T18:33:32.579Z,37.05
2022-08-17T18:36:01.521Z,37.43
2022-08-17T18:38:36.142Z,38.08
2022-08-17T18:41:03.123Z,38.32
2022-08-17T18:43:44.137Z,38.83
2022-08-17T18:46:28.331Z,39.01
2022-08-17T18:48:58.996Z,39.34
2022-08-17T18:51:41.679Z,39.15
2022-08-17T18:54:24.344Z,39.88
2022-08-17T18:56:51.461Z,40.37
2022-08-17T18:59:38.318Z,40.33
2022-08-17T19:05:13.656Z,40.34
2022-08-17T19:07:42.462Z,40.61
2022-08-17T19:10:24.289Z,40.59
2022-08-17T19:12:51.430Z,40.56
2022-08-17T19:15:23.255Z,40.64
2022-08-17T19:17:50.359Z,41.43
2022-08-17T19:20:20.555Z,41.25
2022-08-17T19:22:57.437Z,41.29
2022-08-17T19:25:30.753Z,41.92
2022-08-17T19:28:03.225Z,41.64
2022-08-17T19:30:30.683Z,41.32
2022-08-17T19:32:58.531Z,41.90
2022-08-17T19:35:30.781Z,41.74
2022-08-17T19:37:58.390Z,42.36
2022-08-17T19:40:52.376Z,42.58
2022-08-17T19:43:30.646Z,42.74
2022-08-17T19:46:06.101Z,42.85
2022-08-17T19:48:45.705Z,42.74
2022-08-17T19:51:24.329Z,43.26
2022-08-17T19:54:05.890Z,43.55
2022-08-17T19:56:33.580Z,43.94
2022-08-17T19:59:03.552Z,43.93
2022-08-17T20:01:37.126Z,43.65
2022-08-17T20:04:11.134Z,44.19
2022-08-17T20:06:40.556Z,44.13
2022-08-17T20:09:15.003Z,44.43
2022-08-17T20:11:47.904Z,44.13
2022-08-17T20:14:20.821Z,44.08
2022-08-17T20:16:47.888Z,44.54
2022-08-17T20:19:29.499Z,44.58
2022-08-17T20:22:01.480Z,44.58
2022-08-17T20:24:52.896Z,44.13
2022-08-17T20:27:21.956Z,44.55
2022-08-17T20:30:04.857Z,44.51
2022-08-17T20:32:35.386Z,44.67
2022-08-17T20:35:07.256Z,44.39
2022-08-17T20:37:35.378Z,44.55
2022-08-17T20:40:06.454Z,44.82
2022-08-17T20:42:34.282Z,44.89
2022-08-17T20:45:20.149Z,44.86
2022-08-17T20:48:18.527Z,44.94
2022-08-17T20:50:43.708Z,44.89
2022-08-17T20:53:13.681Z,44.48
2022-08-17T20:55:51.843Z,44.38
2022-08-17T20:58:21.280Z,44.48
2022-08-17T21:00:50.251Z,44.29
2022-08-17T21:03:23.157Z,44.37
2022-08-17T21:06:00.262Z,44.45
2022-08-17T21:08:28.623Z,44.74
2022-08-17T21:10:56.582Z,44.58
2022-08-17T21:13:29.835Z,44.74
2022-08-17T21:16:16.662Z,44.65
2022-08-17T21:19:00.251Z,44.20
2022-08-17T21:21:39.767Z,44.85
2022-08-17T21:24:25.363Z,44.80
2022-08-17T21:27:27.957Z,44.74
2022-08-17T21:30:09.020Z,44.57
2022-08-17T21:32:40.448Z,44.58
2022-08-17T21:35:23.888Z,44.59
2022-08-17T21:37:54.180Z,44.57
2022-08-17T21:40:26.294Z,44.36
2022-08-17T21:42:55.583Z,44.24
2022-08-17T21:45:36.583Z,44.93
2022-08-17T21:48:07.009Z,44.42
2022-08-17T21:50:35.601Z,44.76
2022-08-17T21:53:04.011Z,44.86
2022-08-17T21:55:32.601Z,44.74
2022-08-17T21:58:13.800Z,44.70
2022-08-17T22:00:44.641Z,44.92
2022-08-17T22:03:22.629Z,44.79
2022-08-17T22:05:51.578Z,44.67
2022-08-17T22:08:20.415Z,44.55
2022-08-17T22:10:51.254Z,44.84
2022-08-17T22:13:18.253Z,45.17
2022-08-17T22:15:48.858Z,45.06
2022-08-17T22:18:26.997Z,45.00
2022-08-17T22:20:56.460Z,44.55
2022-08-17T22:23:45.292Z,44.65
2022-08-17T22:26:13.814Z,44.91
2022-08-17T22:28:52.377Z,44.63
2022-08-17T22:31:24.712Z,44.81
2022-08-17T22:34:11.972Z,44.96
2022-08-17T22:36:40.494Z,45.06
2022-08-17T22:39:10.473Z,45.07
2022-08-17T22:41:53.325Z,45.07
2022-08-17T22:44:31.889Z,44.78
2022-08-17T22:46:59.069Z,44.89
2022-08-17T22:49:29.337Z,44.53
2022-08-17T22:52:01.128Z,44.90
2022-08-17T22:54:47.425Z,44.62
2022-08-17T22:57:33.921Z,44.91
2022-08-17T23:00:01.009Z,45.20
2022-08-17T23:02:29.725Z,45.12
2022-08-17T23:05:13.123Z,44.86
2022-08-17T23:07:42.438Z,44.86
2022-08-17T23:10:14.207Z,44.81
2022-08-17T23:12:41.196Z,45.11
2022-08-17T23:15:14.392Z,44.92
2022-08-17T23:17:42.063Z,44.79
2022-08-17T23:20:12.211Z,44.76
2022-08-17T23:22:51.537Z,44.66
2022-08-17T23:25:25.025Z,44.81
2022-08-17T23:27:52.049Z,44.63
2022-08-17T23:30:19.449Z,44.73
2022-08-17T23:32:53.700Z,44.67
2022-08-17T23:35:40.223Z,44.92
2022-08-17T23:38:12.532Z,44.88
2022-08-17T23:40:40.056Z,44.92
2022-08-17T23:43:23.323Z,44.83
2022-08-17T23:45:52.981Z,44.81
2022-08-17T23:48:34.987Z,44.94
2022-08-17T23:51:19.102Z,44.60
2022-08-17T23:53:49.269Z,44.72
2022-08-17T23:56:17.981Z,44.78
2022-08-17T23:58:45.455Z,44.55
